Estación Meteorológica Peña el Pijo (Robertgarden) [ 09/25/18 06:47:17 CEST ]

Fecha Hora Presion(HPa) Temp (°C) Humedad % Rocio (°C) Viento ( m/s) Direccion Lluvia 1Hora(mm) Lluvia 24H(mm) LLuvia Total(mm)
2018-May-28 01:01:50 1007.600 9.2 84 6.6       11.39 230.51
2018-May-28 02:01:38 1007.300 9.9 85 7.4       11.39 230.51
2018-May-28 03:01:56 1006.500 10.4 84 7.8       11.39 230.51
2018-May-28 04:02:04 1006.300 9.8 84 7.2       11.39 230.51
2018-May-28 05:02:13 1005.800 8.7 84 6.1       11.39 230.51
2018-May-28 06:02:20 1005.900 8.5 85 6.1       11.39 230.51
2018-May-28 07:01:51 1005.800 8.5 86 6.3       11.39 230.51
2018-May-28 08:01:51 1005.900 10.5 88 8.6       11.39 230.51
2018-May-28 09:01:50 1006.200 14.6 86 12.3       11.39 230.51
2018-May-28 10:01:42 1006.200 18.9 65 12.1       11.39 230.51
2018-May-28 11:01:42 1005.800 20.6 52 10.4       11.39 230.51
2018-May-28 12:01:39 1005.600 22.4 46 10.1       10.36 230.51
2018-May-28 13:01:51 1005.400 24.3 42 10.5       5.18 230.51
2018-May-28 14:01:40 1005.300 21.8 44 8.9         230.51
2018-May-28 15:01:32 1004.800 22.4 45 9.8         230.51
2018-May-28 16:01:32 1004.800 21.8 48 10.3         230.51
2018-May-28 17:01:57 1004.500 23.9 45 11.2         230.51
2018-May-28 18:01:40 1004.500 22.9 46 10.6 1.2 S     230.51
2018-May-28 19:01:34 1004.500 21.8 47 9.9         230.51
2018-May-28 20:01:51 1004.600 18.9 54 9.4         230.51
2018-May-28 21:01:43 1005.300 17.7 57 9.0         230.51
2018-May-28 22:01:39 1006.300 15.9 61 8.4         230.51
2018-May-28 23:01:45 1007.100 13.9 67 7.8         230.51

Temperatura Máxima:24°    Temperatura Mínima:
Presión Máxima:1007.600 Hpa    Presión Mínima:1004.500 Hpa


Volver